Cheadle Airport

CFQ4 · Alberta, Canada

October 3, 2022

Time Code Weather Temp. Visibility Ceiling Wind METAR/SPECI
14:00
V
21 °C 9 mi - 140° 140° 5 kt METAR CYBW 032000Z AUTO 14005KT 110V190 9SM CLR 21/07 A3014 RMK SLP212 DENSITY ALT 5300FT
13:00
V
20 °C 9 mi - 130° 130° 6 kt METAR CYBW 031900Z AUTO 13006KT 110V170 9SM CLR 20/07 A3015 RMK SLP217 DENSITY ALT 5200FT
12:00
V
17 °C 9 mi - Var Var 3 kt METAR CYBW 031800Z AUTO VRB03KT 9SM CLR 17/08 A3016 RMK SLP226 DENSITY ALT 4900FT
11:00
V
14 °C 9 mi - 320° 320° 4 kt METAR CYBW 031700Z AUTO 32004KT 9SM CLR 14/07 A3018 RMK SLP235 DENSITY ALT 4500FT
10:00
V
10 °C 9 mi - 320° 320° 5 kt METAR CYBW 031600Z AUTO 32005KT 9SM CLR 10/06 A3018 RMK SLP241 DENSITY ALT 4000FT
09:00
V
7 °C 9 mi - 320° 320° 2 kt METAR CYBW 031500Z AUTO 32002KT 9SM CLR 07/05 A3018 RMK SLP236
08:00
V
6 °C 9 mi - 330° 330° 3 kt METAR CYBW 031400Z AUTO 33003KT 9SM SCT120 06/04 A3018 RMK SLP238
07:00
V
5 °C 9 mi 12,000 ft 300° 300° 4 kt METAR CYBW 031300Z AUTO 30004KT 9SM OVC120 05/04 A3018 RMK SLP236
06:00
V
4 °C 9 mi - 330° 330° 6 kt METAR CYBW 031200Z AUTO 33006KT 9SM CLR 04/04 A3017 RMK PCPN 0.5MM PAST HR SLP230
05:00
V
4 °C 9 mi - 330° 330° 7 kt METAR CYBW 031100Z AUTO 33007KT 9SM CLR 04/04 A3017 RMK SLP225
04:00
V
5 °C 9 mi - 330° 330° 8 kt METAR CYBW 031000Z AUTO 33008KT 9SM CLR 05/05 A3016 RMK SLP221
03:00
V
6 °C 9 mi - 320° 320° 8 kt METAR CYBW 030900Z AUTO 32008KT 9SM CLR 06/04 A3017 RMK SLP221
02:00
V
7 °C 9 mi - 310° 310° 8 kt METAR CYBW 030800Z AUTO 31008KT 9SM CLR 07/05 A3016 RMK SLP219
01:00
V
8 °C 9 mi - 310° 310° 10 kt METAR CYBW 030700Z AUTO 31010KT 9SM CLR 08/05 A3015 RMK SLP216
00:00
V
7 °C 9 mi - 320° 320° 8 kt METAR CYBW 030600Z AUTO 32008KT 9SM CLR 07/05 A3015 RMK SLP221

October 2, 2022

Time Code Weather Temp. Visibility Ceiling Wind METAR/SPECI
23:00
V
8 °C 9 mi - 320° 320° 8 kt METAR CYBW 030500Z AUTO 32008KT 9SM CLR 08/05 A3014 RMK SLP224
22:00
V
10 °C 9 mi - 270° 270° 5 kt METAR CYBW 030400Z AUTO 27005KT 9SM CLR 10/05 A3013 RMK SLP227 DENSITY ALT 4000FT
21:00
V
14 °C 9 mi - 020° 020° 6 kt METAR CYBW 030300Z AUTO 02006KT 9SM CLR 14/05 A3012 RMK SLP223 DENSITY ALT 4500FT
20:00
V
14 °C 9 mi - 040° 040° 7 kt METAR CYBW 030200Z AUTO 04007KT 9SM CLR 14/05 A3012 RMK SLP227 DENSITY ALT 4600FT
19:00
V
16 °C 9 mi - 030° 030° 7 kt METAR CYBW 030100Z AUTO 03007KT 9SM CLR 16/05 A3010 RMK SLP217 DENSITY ALT 4800FT
18:00
V
20 °C 9 mi - 020° 020° 12 kt METAR CYBW 030000Z AUTO 02012KT 9SM CLR 20/05 A3008 RMK SLP203 DENSITY ALT 5300FT
17:00
V
22 °C 9 mi - 010° 010° 12 - 19 kt METAR CYBW 022300Z AUTO 01012G19KT 9SM CLR 22/05 A3007 RMK SLP194 DENSITY ALT 5500FT
16:00
V
23 °C 9 mi - 010° 010° 11 kt METAR CYBW 022200Z AUTO 01011KT 9SM CLR 23/05 A3005 RMK SLP187 DENSITY ALT 5600FT
15:00
V
22 °C 9 mi - 340° 340° 13 kt METAR CYBW 022100Z AUTO 34013KT 340V040 9SM CLR 22/04 A3005 RMK SLP188 DENSITY ALT 5600FT
14:00
V
22 °C 9 mi - 010° 010° 8 kt METAR CYBW 022000Z AUTO 01008KT 9SM CLR 22/04 A3007 RMK SLP191 DENSITY ALT 5500FT
13:00
V
20 °C 9 mi - 090° 090° 3 kt METAR CYBW 021900Z AUTO 09003KT 040V140 9SM CLR 20/05 A3007 RMK SLP188 DENSITY ALT 5300FT
12:00
V
17 °C 9 mi - Var Var 2 kt METAR CYBW 021800Z AUTO VRB02KT 9SM CLR 17/05 A3008 RMK SLP193 DENSITY ALT 5000FT
11:00
V
13 °C 9 mi - Var 000° 0 kt METAR CYBW 021700Z AUTO 00000KT 9SM CLR 13/07 A3008 RMK SLP198 DENSITY ALT 4500FT
10:00
V
8 °C 9 mi - 320° 320° 3 kt METAR CYBW 021600Z AUTO 32003KT 9SM CLR 08/06 A3007 RMK SLP202
09:00
V
4 °C 9 mi - 310° 310° 4 kt METAR CYBW 021500Z AUTO 31004KT 9SM CLR 04/04 A3006 RMK SLP206
08:10
V
1 °C 9 mi - 310° 310° 6 kt METAR CYBW 021410Z AUTO 31006KT 9SM CLR 01/01 A3005 RMK ICE PAST HR SLP223
08:02
I
0 °C 1¼ mi - 310° 310° 5 kt METAR CYBW 021402Z AUTO 31005KT 1 1/4SM R35/2800VP6000FT/ BR CLR 00/00 A3005 RMK ICE PAST HR SLP226
08:00
L
-1 °C ¾ mi - 300° 300° 6 kt METAR CYBW 021400Z AUTO 30006KT 3/4SM R35/2800VP6000FT/ BR FEW002 M01/M01 A3005 RMK ICE INTMT SLP205
07:59
I
0 °C 1 mi - 290° 290° 5 kt METAR CYBW 021359Z AUTO 29005KT 1SM R35/2800VP6000FT/ BR FEW002 M00/M00 A3005 RMK ICE INTMT SLP227
07:38
L
0 °C ⅛ mi - 200° 200° 3 kt METAR CYBW 021338Z AUTO 20003KT 1/8SM R35/1400V2000FT/ FZFG SCT002 M00/M00 A3005 RMK ICE SLP226
07:34
L
0 °C ⅛ mi - 190° 190° 3 kt METAR CYBW 021334Z AUTO 19003KT 190V270 1/8SM R35/2600FT/N FZFG SCT002 M00/M00 A3005 RMK ICE SLP226
07:29
L
0 °C ⅛ mi - 220° 220° 3 kt METAR CYBW 021329Z AUTO 22003KT 210V280 1/8SM R35/2600VP6000FT/ FZFG FEW002 M00/M00 A3005 RMK SLP225
07:13
L
0 °C ¼ mi - 270° 270° 3 kt METAR CYBW 021313Z AUTO 27003KT 1/4SM R35/3000VP6000FT FG CLR 00/00 A3004 RMK SLP223
07:12
L
0 °C ¼ mi - 270° 270° 2 kt METAR CYBW 021312Z AUTO 27002KT 1/4SM R35/3000VP6000FT FZFG CLR M00/M00 A3004 RMK SLP223
07:08
L
0 °C ¼ mi - 280° 280° 2 kt METAR CYBW 021308Z AUTO 28002KT 1/4SM R35/3000VP6000FT/ FG CLR 00/00 A3004 RMK SLP222
07:03
L
0 °C ¼ mi - 290° 290° 3 kt METAR CYBW 021303Z AUTO 29003KT 1/4SM R35/3000VP6000FT/ FG CLR 00/00 A3004 RMK SLP222
06:51
L
-1 °C ½ mi - 290° 290° 4 kt METAR CYBW 021251Z AUTO 29004KT 1/2SM R35/2800VP6000FT FZFG CLR M01/M01 A3004 RMK SLP224
06:29
I
1 °C 1 mi - 290° 290° 4 kt METAR CYBW 021229Z AUTO 29004KT 1SM R35/4500VP6000FT BR CLR 01/01 A3004 RMK VIS VRB 3/8-2 1/2 SLP220
06:26
L
0 °C ⅝ mi - 300° 300° 4 kt METAR CYBW 021226Z AUTO 30004KT 5/8SM R35/4500VP6000FT/ BR CLR 00/00 A3004 RMK VIS VRB 3/8-2 1/4 SLP221
06:24
L
0 °C ½ mi - 300° 300° 4 kt METAR CYBW 021224Z AUTO 30004KT 1/2SM R35/4500VP6000FT/ FZFG CLR M00/M00 A3004 RMK SLP225
06:18
L
0 °C ¼ mi - 310° 310° 4 kt METAR CYBW 021218Z AUTO 31004KT 1/4SM R35/2600VP6000FT/ FZFG FEW002 M00/M00 A3004 RMK SLP224
06:03
L
1 °C ⅛ mi - 300° 300° 4 kt METAR CYBW 021203Z AUTO 30004KT 1/8SM R35/3000VP6000FT/ FG SCT002 01/01 A3005 RMK SLP221
05:46
L
1 °C ¼ mi 200 ft 310° 310° 5 kt METAR CYBW 021146Z AUTO 31005KT 1/4SM R35/2600FT/N FG BKN002 01/01 A3005 RMK SLP222
05:35
L
1 °C ⅜ mi - 310° 310° 4 kt METAR CYBW 021135Z AUTO 31004KT 3/8SM R35/P6000FT/D FG FEW002 01/01 A3005 RMK SLP221
05:33
L
1 °C ¾ mi - 320° 320° 3 kt METAR CYBW 021133Z AUTO 32003KT 3/4SM R35/P6000FT/D BR FEW002 01/01 A3005 RMK SLP222
05:18
V
1 °C 6 mi - 310° 310° 3 kt METAR CYBW 021118Z AUTO 31003KT 6SM BR FEW002 01/01 A3005 RMK SLP221
05:12
I
1 °C 1 mi - 320° 320° 4 kt METAR CYBW 021112Z AUTO 32004KT 1SM R35/2600VP6000FT BR FEW002 01/01 A3005 RMK SLP221
05:00
L
2 °C ⅜ mi - 330° 330° 3 kt METAR CYBW 021100Z AUTO 33003KT 3/8SM R35/P6000FT/D FG FEW002 02/02 A3005 RMK SLP191
04:58
L
2 °C ⅜ mi - 330° 330° 3 kt METAR CYBW 021058Z AUTO 33003KT 3/8SM R35/P6000FT/U FG FEW002 02/02 A3005 RMK SLP221
04:39
V
2 °C 5 mi - Var 000° 0 kt METAR CYBW 021039Z AUTO 00000KT 5SM BR CLR 02/02 A3006 RMK SLP220
04:00
V
2 °C 9 mi - 290° 290° 3 kt METAR CYBW 021000Z AUTO 29003KT 9SM CLR 02/02 A3007 RMK SLP194
03:00
V
2 °C 8 mi - 310° 310° 5 kt METAR CYBW 020900Z AUTO 31005KT 8SM CLR 02/02 A3008 RMK SLP199
02:48
V
2 °C 7 mi - 300° 300° 4 kt METAR CYBW 020848Z AUTO 30004KT 230V320 7SM CLR 02/02 A3008 RMK SLP229
02:38
M
3 °C 4 mi - 230° 230° 3 kt METAR CYBW 020838Z AUTO 23003KT 4SM BR CLR 03/03 A3008 RMK SLP226
02:34
V
3 °C 6 mi - 200° 200° 3 kt METAR CYBW 020834Z AUTO 20003KT 6SM BR CLR 03/03 A3008 RMK SLP226
02:29
I
2 °C 1¼ mi - 220° 220° 4 kt METAR CYBW 020829Z AUTO 22004KT 1 1/4SM BR CLR 02/02 A3008 RMK SLP231
02:19
I
4 °C 2 mi - 180° 180° 4 kt METAR CYBW 020819Z AUTO 18004KT 2SM BR CLR 04/03 A3008 RMK SLP224
02:13
V
6 °C 5 mi - 150° 150° 3 kt METAR CYBW 020813Z AUTO 15003KT 5SM BR CLR 06/06 A3008 RMK SLP219
02:01
L
4 °C ¾ mi - Var 000° 0 kt METAR CYBW 020801Z AUTO 00000KT 3/4SM R35/P6000FT/N BR CLR 04/03 A3009 RMK SLP227
02:00
I
4 °C 1 mi - Var 000° 0 kt METAR CYBW 020800Z AUTO 00000KT 1SM R35/P6000FT/N BR CLR 04/04 A3009 RMK SLP200
01:59
I
4 °C 1½ mi - Var 000° 0 kt METAR CYBW 020759Z AUTO 00000KT 1 1/2SM BR CLR 04/04 A3009 RMK SLP226
01:00
V
9 °C 9 mi - 170° 170° 2 kt METAR CYBW 020700Z AUTO 17002KT 9SM CLR 09/07 A3010 RMK SLP201
00:00
V
9 °C 9 mi - 120° 120° 3 kt METAR CYBW 020600Z AUTO 12003KT 060V170 9SM CLR 09/06 A3010 RMK SLP205 DENSITY ALT 4000FT

October 1, 2022

Time Code Weather Temp. Visibility Ceiling Wind METAR/SPECI
23:00
V
11 °C 9 mi - 150° 150° 8 kt METAR CYBW 020500Z AUTO 15008KT 9SM CLR 11/07 A3010 RMK SLP207 DENSITY ALT 4200FT
22:00
V
11 °C 9 mi - 140° 140° 6 kt METAR CYBW 020400Z AUTO 14006KT 9SM CLR 11/07 A3012 RMK SLP219 DENSITY ALT 4200FT
21:00
V
12 °C 9 mi - 160° 160° 3 kt METAR CYBW 020300Z AUTO 16003KT 120V260 9SM CLR 12/07 A3013 RMK SLP227 DENSITY ALT 4300FT
20:00
V
15 °C 9 mi - 150° 150° 10 kt METAR CYBW 020200Z AUTO 15010KT 9SM CLR 15/07 A3013 RMK SLP224 DENSITY ALT 4600FT
19:00
V
17 °C 9 mi - 140° 140° 11 - 16 kt METAR CYBW 020100Z AUTO 14011G16KT 9SM CLR 17/07 A3013 RMK SLP222 DENSITY ALT 4900FT
18:00
V
20 °C 9 mi - 140° 140° 11 - 19 kt METAR CYBW 020000Z AUTO 14011G19KT 9SM CLR 20/08 A3014 RMK SLP219 DENSITY ALT 5200FT
17:00
V
21 °C 9 mi - 160° 160° 11 - 16 kt METAR CYBW 012300Z AUTO 16011G16KT 9SM CLR 21/07 A3014 RMK SLP220 DENSITY ALT 5300FT
16:00
V
22 °C 9 mi - 140° 140° 10 - 15 kt METAR CYBW 012200Z AUTO 14010G15KT 9SM CLR 22/09 A3016 RMK SLP223 DENSITY ALT 5400FT
15:00
V
21 °C 9 mi - 150° 150° 10 - 17 kt METAR CYBW 012100Z AUTO 15010G17KT 9SM CLR 21/08 A3017 RMK SLP228 DENSITY ALT 5300FT
14:00
V
21 °C 9 mi - 150° 150° 9 kt METAR CYBW 012000Z AUTO 15009KT 9SM CLR 21/09 A3019 RMK SLP234 DENSITY ALT 5200FT
13:00
V
18 °C 9 mi - 160° 160° 5 kt METAR CYBW 011900Z AUTO 16005KT 120V190 9SM CLR 18/09 A3022 RMK SLP246 DENSITY ALT 4900FT
12:00
V
16 °C 9 mi - 200° 200° 3 kt METAR CYBW 011800Z AUTO 20003KT 120V280 9SM CLR 16/09 A3024 RMK SLP257 DENSITY ALT 4600FT
11:00
V
13 °C 9 mi - Var 000° 0 kt METAR CYBW 011700Z AUTO 00000KT 9SM CLR 13/09 A3025 RMK SLP263 DENSITY ALT 4300FT
10:00
V
8 °C 9 mi - Var Var 2 kt METAR CYBW 011600Z AUTO VRB02KT 9SM CLR 08/08 A3026 RMK SLP272
09:16
V
6 °C 6 mi - 340° 340° 2 kt METAR CYBW 011516Z AUTO 34002KT 6SM BR CLR 06/06 A3026 RMK SLP279
09:11
I
6 °C 3 mi - Var Var 2 kt METAR CYBW 011511Z AUTO VRB02KT 3SM BR CLR 06/06 A3026 RMK SLP280
09:00
L
5 °C ¾ mi - Var 000° 0 kt METAR CYBW 011500Z AUTO 00000KT 3/4SM R35/P6000FT/N BR CLR 05/05 A3026 RMK SLP277
08:57
L
5 °C ¾ mi - Var 000° 0 kt METAR CYBW 011457Z AUTO 00000KT 3/4SM R35/P6000FT/N BR CLR 05/05 A3026 RMK SLP282
Older data

We and third parties follow your internet behavior on our website with cookies. If you continue, we assume you agree with our cookie policy. Learn more